sensor_id;sensor_type;location;lat;lon;timestamp;pressure;altitude;pressure_sealevel;temperature;humidity
41218;BME280;26950;50.960;7.138;2022-07-05T00:00:03;100986.13;;;23.57;43.50
41218;BME280;26950;50.960;7.138;2022-07-05T00:02:30;100992.06;;;23.74;42.88
41218;BME280;26950;50.960;7.138;2022-07-05T00:04:57;100991.38;;;23.64;43.07
41218;BME280;26950;50.960;7.138;2022-07-05T00:07:25;100996.66;;;23.67;43.03
41218;BME280;26950;50.960;7.138;2022-07-05T00:09:54;100993.44;;;23.49;43.34
41218;BME280;26950;50.960;7.138;2022-07-05T00:12:23;100993.25;;;23.58;43.26
41218;BME280;26950;50.960;7.138;2022-07-05T00:14:50;100993.38;;;23.50;43.41
41218;BME280;26950;50.960;7.138;2022-07-05T00:17:17;100992.25;;;23.65;43.17
41218;BME280;26950;50.960;7.138;2022-07-05T00:19:43;101004.81;;;23.60;43.01
41218;BME280;26950;50.960;7.138;2022-07-05T00:22:10;100998.22;;;22.79;44.96
41218;BME280;26950;50.960;7.138;2022-07-05T00:24:38;100998.38;;;22.70;44.92
41218;BME280;26950;50.960;7.138;2022-07-05T00:27:04;100996.34;;;23.36;43.61
41218;BME280;26950;50.960;7.138;2022-07-05T00:29:31;100994.81;;;23.23;43.97
41218;BME280;26950;50.960;7.138;2022-07-05T00:31:57;101006.16;;;23.36;43.62
41218;BME280;26950;50.960;7.138;2022-07-05T00:34:24;101001.81;;;23.30;43.71
41218;BME280;26950;50.960;7.138;2022-07-05T00:36:51;101005.50;;;23.23;43.72
41218;BME280;26950;50.960;7.138;2022-07-05T00:39:17;101002.66;;;22.80;44.67
41218;BME280;26950;50.960;7.138;2022-07-05T00:41:45;100999.72;;;22.98;44.57
41218;BME280;26950;50.960;7.138;2022-07-05T00:44:12;100996.97;;;23.03;44.32
41218;BME280;26950;50.960;7.138;2022-07-05T00:46:39;101016.50;;;22.49;45.96
41218;BME280;26950;50.960;7.138;2022-07-05T00:49:07;101002.41;;;22.97;44.78
41218;BME280;26950;50.960;7.138;2022-07-05T00:51:35;101011.28;;;22.99;44.43
41218;BME280;26950;50.960;7.138;2022-07-05T00:54:02;101016.53;;;23.05;44.32
41218;BME280;26950;50.960;7.138;2022-07-05T00:56:31;101017.91;;;22.76;45.42
41218;BME280;26950;50.960;7.138;2022-07-05T00:58:59;101022.53;;;22.65;45.42
41218;BME280;26950;50.960;7.138;2022-07-05T01:01:27;101015.41;;;22.62;45.37
41218;BME280;26950;50.960;7.138;2022-07-05T01:03:53;101020.47;;;22.81;45.11
41218;BME280;26950;50.960;7.138;2022-07-05T01:06:20;101011.56;;;22.80;44.85
41218;BME280;26950;50.960;7.138;2022-07-05T01:08:46;101001.72;;;22.84;44.73
41218;BME280;26950;50.960;7.138;2022-07-05T01:11:14;101003.47;;;22.85;44.71
41218;BME280;26950;50.960;7.138;2022-07-05T01:13:41;101009.69;;;22.85;44.67
41218;BME280;26950;50.960;7.138;2022-07-05T01:16:09;101010.78;;;22.12;46.34
41218;BME280;26950;50.960;7.138;2022-07-05T01:18:36;101006.34;;;22.73;44.97
41218;BME280;26950;50.960;7.138;2022-07-05T01:21:02;101007.94;;;22.84;44.79
41218;BME280;26950;50.960;7.138;2022-07-05T01:23:31;101009.09;;;22.70;45.06
41218;BME280;26950;50.960;7.138;2022-07-05T01:25:59;101013.50;;;22.72;45.18
41218;BME280;26950;50.960;7.138;2022-07-05T01:28:26;101011.81;;;22.65;45.14
41218;BME280;26950;50.960;7.138;2022-07-05T01:30:52;101010.94;;;22.65;45.13
41218;BME280;26950;50.960;7.138;2022-07-05T01:33:26;101016.41;;;22.57;45.37
41218;BME280;26950;50.960;7.138;2022-07-05T01:35:53;101018.44;;;22.40;45.92
41218;BME280;26950;50.960;7.138;2022-07-05T01:38:19;101009.31;;;22.54;45.61
41218;BME280;26950;50.960;7.138;2022-07-05T01:40:47;101007.59;;;22.50;45.64
41218;BME280;26950;50.960;7.138;2022-07-05T01:43:17;101012.94;;;22.49;45.89
41218;BME280;26950;50.960;7.138;2022-07-05T01:45:45;101021.94;;;22.43;45.82
41218;BME280;26950;50.960;7.138;2022-07-05T01:48:14;101015.81;;;22.37;46.04
41218;BME280;26950;50.960;7.138;2022-07-05T01:50:45;101021.16;;;22.38;45.92
41218;BME280;26950;50.960;7.138;2022-07-05T01:53:17;101020.28;;;22.36;46.03
41218;BME280;26950;50.960;7.138;2022-07-05T01:55:44;101017.66;;;22.33;45.95
41218;BME280;26950;50.960;7.138;2022-07-05T01:58:12;101014.91;;;22.36;45.93
41218;BME280;26950;50.960;7.138;2022-07-05T02:00:46;101017.78;;;22.25;46.25
41218;BME280;26950;50.960;7.138;2022-07-05T02:03:15;101022.13;;;22.31;46.09
41218;BME280;26950;50.960;7.138;2022-07-05T02:05:42;101022.09;;;22.34;45.97
41218;BME280;26950;50.960;7.138;2022-07-05T02:08:09;101016.84;;;21.52;47.75
41218;BME280;26950;50.960;7.138;2022-07-05T02:10:36;101025.84;;;22.21;46.12
41218;BME280;26950;50.960;7.138;2022-07-05T02:13:03;101031.09;;;22.27;46.19
41218;BME280;26950;50.960;7.138;2022-07-05T02:15:31;101024.00;;;22.26;46.01
41218;BME280;26950;50.960;7.138;2022-07-05T02:17:58;101025.00;;;22.16;46.34
41218;BME280;26950;50.960;7.138;2022-07-05T02:20:25;101032.00;;;22.26;46.06
41218;BME280;26950;50.960;7.138;2022-07-05T02:22:52;101031.09;;;22.27;45.92
41218;BME280;26950;50.960;7.138;2022-07-05T02:25:18;101018.72;;;22.20;46.05
41218;BME280;26950;50.960;7.138;2022-07-05T02:27:45;101016.03;;;22.21;45.87
41218;BME280;26950;50.960;7.138;2022-07-05T02:30:12;101026.78;;;22.17;45.97
41218;BME280;26950;50.960;7.138;2022-07-05T02:32:40;101030.44;;;22.08;45.95
41218;BME280;26950;50.960;7.138;2022-07-05T02:35:08;101032.31;;;21.98;46.28
41218;BME280;26950;50.960;7.138;2022-07-05T02:37:35;101033.22;;;21.99;46.30
41218;BME280;26950;50.960;7.138;2022-07-05T02:40:02;101031.47;;;21.96;46.21
41218;BME280;26950;50.960;7.138;2022-07-05T02:42:29;101033.34;;;21.88;46.42
41218;BME280;26950;50.960;7.138;2022-07-05T02:44:56;101030.75;;;21.82;46.47
41218;BME280;26950;50.960;7.138;2022-07-05T02:47:22;101036.25;;;21.67;47.05
41218;BME280;26950;50.960;7.138;2022-07-05T02:49:50;101030.97;;;21.64;47.08
41218;BME280;26950;50.960;7.138;2022-07-05T02:52:17;101036.31;;;21.61;47.15
41218;BME280;26950;50.960;7.138;2022-07-05T02:54:43;101039.75;;;21.75;46.84
41218;BME280;26950;50.960;7.138;2022-07-05T02:57:09;101040.69;;;21.68;47.10
41218;BME280;26950;50.960;7.138;2022-07-05T02:59:36;101042.56;;;21.60;47.18
41218;BME280;26950;50.960;7.138;2022-07-05T03:02:03;101042.50;;;21.66;47.20
41218;BME280;26950;50.960;7.138;2022-07-05T03:04:29;101049.78;;;21.51;47.63
41218;BME280;26950;50.960;7.138;2022-07-05T03:06:57;101052.47;;;21.51;47.85
41218;BME280;26950;50.960;7.138;2022-07-05T03:09:23;101046.94;;;21.70;47.32
41218;BME280;26950;50.960;7.138;2022-07-05T03:11:50;101041.50;;;21.76;47.18
41218;BME280;26950;50.960;7.138;2022-07-05T03:14:16;101038.03;;;21.68;46.99
41218;BME280;26950;50.960;7.138;2022-07-05T03:16:43;101030.09;;;21.63;47.28
41218;BME280;26950;50.960;7.138;2022-07-05T03:19:09;101029.25;;;21.55;47.56
41218;BME280;26950;50.960;7.138;2022-07-05T03:21:36;101018.66;;;21.49;47.41
41218;BME280;26950;50.960;7.138;2022-07-05T03:24:04;101034.56;;;21.60;47.39
41218;BME280;26950;50.960;7.138;2022-07-05T03:26:31;101038.03;;;21.66;47.32
41218;BME280;26950;50.960;7.138;2022-07-05T03:28:57;101037.06;;;21.75;47.12
41218;BME280;26950;50.960;7.138;2022-07-05T03:31:24;101040.59;;;21.77;46.78
41218;BME280;26950;50.960;7.138;2022-07-05T03:33:50;101030.81;;;21.74;46.94
41218;BME280;26950;50.960;7.138;2022-07-05T03:36:16;101042.31;;;21.81;46.75
41218;BME280;26950;50.960;7.138;2022-07-05T03:38:43;101044.19;;;21.76;46.83
41218;BME280;26950;50.960;7.138;2022-07-05T03:41:11;101038.94;;;21.67;47.07
41218;BME280;26950;50.960;7.138;2022-07-05T03:43:37;101043.38;;;21.68;47.18
41218;BME280;26950;50.960;7.138;2022-07-05T03:46:04;101032.72;;;21.66;47.22
41218;BME280;26950;50.960;7.138;2022-07-05T03:48:30;101041.69;;;21.59;47.58
41218;BME280;26950;50.960;7.138;2022-07-05T03:50:56;101038.06;;;21.65;47.38
41218;BME280;26950;50.960;7.138;2022-07-05T03:53:23;101029.78;;;20.97;49.44
41218;BME280;26950;50.960;7.138;2022-07-05T03:55:49;101020.34;;;21.58;47.82
41218;BME280;26950;50.960;7.138;2022-07-05T03:58:17;101025.72;;;21.54;47.79
41218;BME280;26950;50.960;7.138;2022-07-05T04:00:43;101021.13;;;21.69;47.61
41218;BME280;26950;50.960;7.138;2022-07-05T04:03:10;101026.72;;;21.44;48.17
41218;BME280;26950;50.960;7.138;2022-07-05T04:05:36;101022.94;;;21.62;47.69
41218;BME280;26950;50.960;7.138;2022-07-05T04:08:04;101034.88;;;21.23;48.74
41218;BME280;26950;50.960;7.138;2022-07-05T04:10:30;101037.84;;;20.94;49.89
41218;BME280;26950;50.960;7.138;2022-07-05T04:12:57;101043.53;;;21.52;48.34
41218;BME280;26950;50.960;7.138;2022-07-05T04:15:25;101029.25;;;21.58;48.06
41218;BME280;26950;50.960;7.138;2022-07-05T04:17:53;101030.06;;;21.62;48.27
41218;BME280;26950;50.960;7.138;2022-07-05T04:20:20;101056.91;;;21.52;48.33
41218;BME280;26950;50.960;7.138;2022-07-05T04:22:47;101064.88;;;21.54;48.47
41218;BME280;26950;50.960;7.138;2022-07-05T04:25:13;101066.53;;;21.66;47.84
41218;BME280;26950;50.960;7.138;2022-07-05T04:27:43;101072.13;;;21.44;48.30
41218;BME280;26950;50.960;7.138;2022-07-05T04:30:10;101081.66;;;21.70;47.62
41218;BME280;26950;50.960;7.138;2022-07-05T04:32:38;101086.91;;;21.74;47.52
41218;BME280;26950;50.960;7.138;2022-07-05T04:35:05;101081.53;;;21.79;47.45
41218;BME280;26950;50.960;7.138;2022-07-05T04:37:31;101090.41;;;21.83;47.66
41218;BME280;26950;50.960;7.138;2022-07-05T04:39:58;101092.13;;;21.90;47.37
41218;BME280;26950;50.960;7.138;2022-07-05T04:42:25;101096.72;;;21.77;47.80
41218;BME280;26950;50.960;7.138;2022-07-05T04:44:51;101097.41;;;21.93;47.38
41218;BME280;26950;50.960;7.138;2022-07-05T04:47:17;101093.06;;;21.84;47.48
41218;BME280;26950;50.960;7.138;2022-07-05T04:49:45;101093.00;;;21.87;47.40
41218;BME280;26950;50.960;7.138;2022-07-05T04:52:12;101094.00;;;21.81;47.26
41218;BME280;26950;50.960;7.138;2022-07-05T04:54:38;101101.94;;;21.88;47.36
41218;BME280;26950;50.960;7.138;2022-07-05T04:57:06;101100.09;;;21.93;47.24
41218;BME280;26950;50.960;7.138;2022-07-05T04:59:32;101103.56;;;22.02;47.07
41218;BME280;26950;50.960;7.138;2022-07-05T05:01:59;101106.25;;;21.99;47.42
41218;BME280;26950;50.960;7.138;2022-07-05T05:04:25;101111.59;;;21.99;47.71
41218;BME280;26950;50.960;7.138;2022-07-05T05:06:53;101106.00;;;21.35;49.25
41218;BME280;26950;50.960;7.138;2022-07-05T05:09:19;101102.94;;;21.74;48.72
41218;BME280;26950;50.960;7.138;2022-07-05T05:11:46;101107.94;;;22.10;47.75
41218;BME280;26950;50.960;7.138;2022-07-05T05:14:13;101097.22;;;22.14;47.62
41218;BME280;26950;50.960;7.138;2022-07-05T05:16:39;101101.69;;;22.14;47.57
41218;BME280;26950;50.960;7.138;2022-07-05T05:19:06;101099.63;;;22.34;47.26
41218;BME280;26950;50.960;7.138;2022-07-05T05:21:32;101103.25;;;22.28;47.66
41218;BME280;26950;50.960;7.138;2022-07-05T05:24:00;101098.69;;;22.38;47.46
41218;BME280;26950;50.960;7.138;2022-07-05T05:26:27;101106.72;;;22.37;47.11
41218;BME280;26950;50.960;7.138;2022-07-05T05:28:54;101106.44;;;22.56;46.68
41218;BME280;26950;50.960;7.138;2022-07-05T05:31:20;101107.34;;;22.55;46.78
41218;BME280;26950;50.960;7.138;2022-07-05T05:33:47;101109.88;;;22.68;46.58
41218;BME280;26950;50.960;7.138;2022-07-05T05:36:13;101104.25;;;22.86;46.21
41218;BME280;26950;50.960;7.138;2022-07-05T05:38:40;101105.28;;;22.77;46.38
41218;BME280;26950;50.960;7.138;2022-07-05T05:41:08;101104.25;;;22.86;46.42
41218;BME280;26950;50.960;7.138;2022-07-05T05:43:34;101113.19;;;22.86;46.12
41218;BME280;26950;50.960;7.138;2022-07-05T05:46:00;101116.72;;;22.90;46.01
41218;BME280;26950;50.960;7.138;2022-07-05T05:48:27;101114.91;;;22.92;45.94
41218;BME280;26950;50.960;7.138;2022-07-05T05:50:53;101106.75;;;23.01;45.90
41218;BME280;26950;50.960;7.138;2022-07-05T05:53:20;101105.75;;;23.07;45.90
41218;BME280;26950;50.960;7.138;2022-07-05T05:55:46;101104.75;;;23.12;45.68
41218;BME280;26950;50.960;7.138;2022-07-05T05:58:15;101105.47;;;23.24;45.78
41218;BME280;26950;50.960;7.138;2022-07-05T06:00:42;101109.88;;;23.28;45.57
41218;BME280;26950;50.960;7.138;2022-07-05T06:03:09;101115.13;;;23.34;44.98
41218;BME280;26950;50.960;7.138;2022-07-05T06:05:36;101117.84;;;23.32;45.17
41218;BME280;26950;50.960;7.138;2022-07-05T06:08:02;101121.41;;;23.31;44.63
41218;BME280;26950;50.960;7.138;2022-07-05T06:10:31;101127.50;;;23.41;44.38
41218;BME280;26950;50.960;7.138;2022-07-05T06:12:59;101125.56;;;23.49;44.34
41218;BME280;26950;50.960;7.138;2022-07-05T06:15:27;101111.06;;;23.62;43.92
41218;BME280;26950;50.960;7.138;2022-07-05T06:17:54;101118.91;;;23.75;43.44
41218;BME280;26950;50.960;7.138;2022-07-05T06:20:23;101123.28;;;23.79;43.30
41218;BME280;26950;50.960;7.138;2022-07-05T06:22:50;101124.06;;;23.85;43.20
41218;BME280;26950;50.960;7.138;2022-07-05T06:25:17;101123.06;;;23.91;42.98
41218;BME280;26950;50.960;7.138;2022-07-05T06:27:46;101121.19;;;23.94;42.82
41218;BME280;26950;50.960;7.138;2022-07-05T06:30:14;101131.78;;;24.02;43.00
41218;BME280;26950;50.960;7.138;2022-07-05T06:32:43;101128.31;;;23.97;43.00
41218;BME280;26950;50.960;7.138;2022-07-05T06:35:10;101129.97;;;24.04;42.97
41218;BME280;26950;50.960;7.138;2022-07-05T06:37:40;101131.72;;;24.05;42.76
41218;BME280;26950;50.960;7.138;2022-07-05T06:40:08;101144.13;;;24.11;42.94
41218;BME280;26950;50.960;7.138;2022-07-05T06:42:35;101135.03;;;24.18;42.74
41218;BME280;26950;50.960;7.138;2022-07-05T06:45:02;101142.97;;;24.24;42.39
41218;BME280;26950;50.960;7.138;2022-07-05T06:47:28;101142.94;;;24.26;42.71
41218;BME280;26950;50.960;7.138;2022-07-05T06:49:58;101149.09;;;24.31;42.22
41218;BME280;26950;50.960;7.138;2022-07-05T06:52:25;101147.44;;;24.23;41.91
41218;BME280;26950;50.960;7.138;2022-07-05T06:54:51;101144.38;;;24.43;41.70
41218;BME280;26950;50.960;7.138;2022-07-05T06:57:19;101148.59;;;24.55;41.29
41218;BME280;26950;50.960;7.138;2022-07-05T06:59:45;101149.31;;;24.63;41.21
41218;BME280;26950;50.960;7.138;2022-07-05T07:02:12;101147.28;;;24.74;41.03
41218;BME280;26950;50.960;7.138;2022-07-05T07:04:38;101153.34;;;24.83;41.07
41218;BME280;26950;50.960;7.138;2022-07-05T07:07:06;101150.28;;;24.99;40.71
41218;BME280;26950;50.960;7.138;2022-07-05T07:09:56;101146.28;;;25.19;40.10
41218;BME280;26950;50.960;7.138;2022-07-05T07:12:21;101147.75;;;25.34;39.67
41218;BME280;26950;50.960;7.138;2022-07-05T07:14:48;101148.31;;;25.46;39.74
41218;BME280;26950;50.960;7.138;2022-07-05T07:17:14;101143.84;;;25.45;39.38
41218;BME280;26950;50.960;7.138;2022-07-05T07:19:41;101152.03;;;25.41;39.62
41218;BME280;26950;50.960;7.138;2022-07-05T07:22:09;101141.97;;;25.49;39.05
41218;BME280;26950;50.960;7.138;2022-07-05T07:24:35;101149.97;;;25.50;39.51
41218;BME280;26950;50.960;7.138;2022-07-05T07:27:02;101151.63;;;25.56;39.80
41218;BME280;26950;50.960;7.138;2022-07-05T07:29:29;101153.06;;;26.05;39.01
41218;BME280;26950;50.960;7.138;2022-07-05T07:31:56;101152.00;;;26.11;38.36
41218;BME280;26950;50.960;7.138;2022-07-05T07:34:23;101155.44;;;25.83;38.51
41218;BME280;26950;50.960;7.138;2022-07-05T07:36:50;101155.75;;;26.36;38.04
41218;BME280;26950;50.960;7.138;2022-07-05T07:39:18;101145.59;;;27.61;35.63
41218;BME280;26950;50.960;7.138;2022-07-05T07:41:45;101149.31;;;28.08;34.67
41218;BME280;26950;50.960;7.138;2022-07-05T07:44:11;101148.00;;;28.68;33.07
41218;BME280;26950;50.960;7.138;2022-07-05T07:46:38;101136.25;;;28.46;33.18
41218;BME280;26950;50.960;7.138;2022-07-05T07:49:05;101150.22;;;28.57;33.44
41218;BME280;26950;50.960;7.138;2022-07-05T07:51:32;101155.22;;;28.44;33.48
41218;BME280;26950;50.960;7.138;2022-07-05T07:53:59;101154.84;;;28.05;33.91
41218;BME280;26950;50.960;7.138;2022-07-05T07:56:27;101150.25;;;27.82;34.22
41218;BME280;26950;50.960;7.138;2022-07-05T07:58:53;101155.44;;;27.62;34.71
41218;BME280;26950;50.960;7.138;2022-07-05T08:01:20;101159.38;;;27.78;34.18
41218;BME280;26950;50.960;7.138;2022-07-05T08:03:46;101153.97;;;27.78;33.35
41218;BME280;26950;50.960;7.138;2022-07-05T08:06:13;101152.66;;;27.90;33.45
41218;BME280;26950;50.960;7.138;2022-07-05T08:08:42;101156.81;;;28.00;33.66
41218;BME280;26950;50.960;7.138;2022-07-05T08:11:10;101160.72;;;27.91;33.42
41218;BME280;26950;50.960;7.138;2022-07-05T08:13:38;101166.78;;;27.73;33.54
41218;BME280;26950;50.960;7.138;2022-07-05T08:16:06;101157.84;;;27.96;33.25
41218;BME280;26950;50.960;7.138;2022-07-05T08:18:33;101163.91;;;28.28;33.45
41218;BME280;26950;50.960;7.138;2022-07-05T08:21:17;101161.66;;;28.64;32.30
41218;BME280;26950;50.960;7.138;2022-07-05T08:24:08;101152.88;;;29.48;31.13
41218;BME280;26950;50.960;7.138;2022-07-05T08:26:35;101152.22;;;30.05;29.39
41218;BME280;26950;50.960;7.138;2022-07-05T08:29:05;101150.22;;;30.11;29.07
41218;BME280;26950;50.960;7.138;2022-07-05T08:31:34;101144.25;;;29.82;29.80
41218;BME280;26950;50.960;7.138;2022-07-05T08:34:01;101144.28;;;29.60;30.15
41218;BME280;26950;50.960;7.138;2022-07-05T08:36:27;101151.09;;;29.05;30.79
41218;BME280;26950;50.960;7.138;2022-07-05T08:38:54;101159.53;;;28.72;31.07
41218;BME280;26950;50.960;7.138;2022-07-05T08:41:21;101157.19;;;28.39;30.92
41218;BME280;26950;50.960;7.138;2022-07-05T08:43:49;101158.47;;;28.29;30.72
41218;BME280;26950;50.960;7.138;2022-07-05T08:46:18;101149.50;;;28.04;31.01
41218;BME280;26950;50.960;7.138;2022-07-05T08:48:48;101148.59;;;27.78;31.07
41218;BME280;26950;50.960;7.138;2022-07-05T08:51:15;101150.84;;;27.64;31.08
41218;BME280;26950;50.960;7.138;2022-07-05T08:53:44;101147.97;;;27.43;31.12
41218;BME280;26950;50.960;7.138;2022-07-05T08:56:12;101161.09;;;27.54;31.42
41218;BME280;26950;50.960;7.138;2022-07-05T08:58:39;101152.63;;;27.38;31.94
41218;BME280;26950;50.960;7.138;2022-07-05T09:01:07;101156.84;;;27.19;32.60
41218;BME280;26950;50.960;7.138;2022-07-05T09:03:38;101146.28;;;27.41;32.08
41218;BME280;26950;50.960;7.138;2022-07-05T09:06:08;101154.03;;;27.50;32.74
41218;BME280;26950;50.960;7.138;2022-07-05T09:08:35;101153.69;;;27.34;33.08
41218;BME280;26950;50.960;7.138;2022-07-05T09:11:06;101158.47;;;27.51;31.74
41218;BME280;26950;50.960;7.138;2022-07-05T09:13:33;101155.03;;;27.48;31.22
41218;BME280;26950;50.960;7.138;2022-07-05T09:16:00;101164.56;;;27.84;31.64
41218;BME280;26950;50.960;7.138;2022-07-05T09:18:41;101158.13;;;27.88;31.61
41218;BME280;26950;50.960;7.138;2022-07-05T09:21:15;101160.88;;;28.12;31.00
41218;BME280;26950;50.960;7.138;2022-07-05T09:23:42;101158.28;;;28.09;30.86
41218;BME280;26950;50.960;7.138;2022-07-05T09:26:09;101155.56;;;28.10;30.58
41218;BME280;26950;50.960;7.138;2022-07-05T09:28:36;101159.50;;;28.00;31.09
41218;BME280;26950;50.960;7.138;2022-07-05T09:31:03;101150.69;;;27.95;31.15
41218;BME280;26950;50.960;7.138;2022-07-05T09:33:29;101155.44;;;27.88;30.02
41218;BME280;26950;50.960;7.138;2022-07-05T09:35:57;101159.66;;;27.71;30.52
41218;BME280;26950;50.960;7.138;2022-07-05T09:38:25;101152.88;;;27.84;30.53
41218;BME280;26950;50.960;7.138;2022-07-05T09:40:53;101161.91;;;27.83;30.89
41218;BME280;26950;50.960;7.138;2022-07-05T09:43:21;101164.78;;;27.78;30.99
41218;BME280;26950;50.960;7.138;2022-07-05T09:45:52;101163.88;;;27.78;30.99
41218;BME280;26950;50.960;7.138;2022-07-05T09:48:19;101153.31;;;27.72;30.80
41218;BME280;26950;50.960;7.138;2022-07-05T09:50:45;101157.91;;;27.68;30.79
41218;BME280;26950;50.960;7.138;2022-07-05T09:53:13;101152.50;;;27.69;31.57
41218;BME280;26950;50.960;7.138;2022-07-05T09:55:40;101159.50;;;27.75;31.95
41218;BME280;26950;50.960;7.138;2022-07-05T09:58:06;101156.31;;;27.36;31.38
41218;BME280;26950;50.960;7.138;2022-07-05T10:00:33;101153.56;;;27.64;30.92
41218;BME280;26950;50.960;7.138;2022-07-05T10:03:00;101152.44;;;27.71;30.70
41218;BME280;26950;50.960;7.138;2022-07-05T10:05:28;101151.88;;;27.33;31.24
41218;BME280;26950;50.960;7.138;2022-07-05T10:07:56;101155.72;;;26.69;32.15
41218;BME280;26950;50.960;7.138;2022-07-05T10:10:25;101159.94;;;27.35;31.59
41218;BME280;26950;50.960;7.138;2022-07-05T10:12:53;101163.72;;;27.56;31.35
41218;BME280;26950;50.960;7.138;2022-07-05T10:15:22;101164.81;;;27.50;30.71
41218;BME280;26950;50.960;7.138;2022-07-05T10:17:52;101166.78;;;27.45;30.77
41218;BME280;26950;50.960;7.138;2022-07-05T10:20:24;101159.47;;;27.49;31.02
41218;BME280;26950;50.960;7.138;2022-07-05T10:22:51;101155.59;;;27.57;29.49
41218;BME280;26950;50.960;7.138;2022-07-05T10:25:19;101155.28;;;26.82;29.58
41218;BME280;26950;50.960;7.138;2022-07-05T10:27:47;101159.75;;;27.41;30.03
41218;BME280;26950;50.960;7.138;2022-07-05T10:30:14;101166.91;;;27.68;30.18
41218;BME280;26950;50.960;7.138;2022-07-05T10:32:42;101167.00;;;27.92;30.36
41218;BME280;26950;50.960;7.138;2022-07-05T10:35:09;101157.31;;;27.86;30.79
41218;BME280;26950;50.960;7.138;2022-07-05T10:37:36;101163.31;;;28.19;30.45
41218;BME280;26950;50.960;7.138;2022-07-05T10:40:04;101157.50;;;28.32;30.35
41218;BME280;26950;50.960;7.138;2022-07-05T10:42:35;101150.09;;;27.87;31.23
41218;BME280;26950;50.960;7.138;2022-07-05T10:45:21;101150.47;;;28.51;29.47
41218;BME280;26950;50.960;7.138;2022-07-05T10:48:15;101150.47;;;28.01;29.02
41218;BME280;26950;50.960;7.138;2022-07-05T10:50:46;101146.41;;;28.14;29.41
41218;BME280;26950;50.960;7.138;2022-07-05T10:53:15;101154.28;;;27.16;30.27
41218;BME280;26950;50.960;7.138;2022-07-05T10:55:52;101154.28;;;27.95;29.86
41218;BME280;26950;50.960;7.138;2022-07-05T10:58:21;101150.09;;;27.87;30.56
41218;BME280;26950;50.960;7.138;2022-07-05T11:04:32;101156.81;;;28.50;29.62
41218;BME280;26950;50.960;7.138;2022-07-05T11:07:01;101158.16;;;28.85;29.31
41218;BME280;26950;50.960;7.138;2022-07-05T11:09:27;101157.44;;;28.57;29.51
41218;BME280;26950;50.960;7.138;2022-07-05T11:12:09;101158.72;;;28.70;29.46
41218;BME280;26950;50.960;7.138;2022-07-05T11:14:38;101160.00;;;28.60;29.67
41218;BME280;26950;50.960;7.138;2022-07-05T11:17:17;101154.81;;;28.55;29.51
41218;BME280;26950;50.960;7.138;2022-07-05T11:20:06;101154.03;;;28.75;29.37
41218;BME280;26950;50.960;7.138;2022-07-05T11:22:34;101151.47;;;28.48;29.24
41218;BME280;26950;50.960;7.138;2022-07-05T11:25:01;101147.03;;;27.98;29.33
41218;BME280;26950;50.960;7.138;2022-07-05T11:27:28;101144.03;;;28.54;29.94
41218;BME280;26950;50.960;7.138;2022-07-05T11:29:56;101143.22;;;28.75;29.33
41218;BME280;26950;50.960;7.138;2022-07-05T11:32:36;101138.81;;;28.96;29.18
41218;BME280;26950;50.960;7.138;2022-07-05T11:35:14;101138.50;;;29.03;28.91
41218;BME280;26950;50.960;7.138;2022-07-05T11:37:58;101139.59;;;28.76;28.37
41218;BME280;26950;50.960;7.138;2022-07-05T11:40:30;101139.09;;;28.88;28.65
41218;BME280;26950;50.960;7.138;2022-07-05T11:42:58;101142.88;;;28.12;28.43
41218;BME280;26950;50.960;7.138;2022-07-05T11:45:25;101123.81;;;27.67;28.57
41218;BME280;26950;50.960;7.138;2022-07-05T11:47:54;101121.13;;;27.65;30.46
41218;BME280;26950;50.960;7.138;2022-07-05T11:50:29;101139.97;;;27.67;30.76
41218;BME280;26950;50.960;7.138;2022-07-05T11:52:57;101131.41;;;28.31;30.36
41218;BME280;26950;50.960;7.138;2022-07-05T11:55:25;101136.47;;;28.40;30.37
41218;BME280;26950;50.960;7.138;2022-07-05T11:57:53;101130.75;;;28.24;30.61
41218;BME280;26950;50.960;7.138;2022-07-05T12:00:30;101141.22;;;28.33;30.42
41218;BME280;26950;50.960;7.138;2022-07-05T12:02:59;101127.97;;;28.51;29.73
41218;BME280;26950;50.960;7.138;2022-07-05T12:05:30;101131.22;;;28.60;30.17
41218;BME280;26950;50.960;7.138;2022-07-05T12:07:57;101130.69;;;28.51;30.22
41218;BME280;26950;50.960;7.138;2022-07-05T12:10:23;101124.72;;;28.88;29.50
41218;BME280;26950;50.960;7.138;2022-07-05T12:13:08;101122.75;;;28.69;29.71
41218;BME280;26950;50.960;7.138;2022-07-05T12:15:36;101122.53;;;28.97;29.03
41218;BME280;26950;50.960;7.138;2022-07-05T12:18:05;101111.19;;;28.42;29.53
41218;BME280;26950;50.960;7.138;2022-07-05T12:20:35;101120.19;;;28.66;29.16
41218;BME280;26950;50.960;7.138;2022-07-05T12:23:02;101112.16;;;28.87;28.43
41218;BME280;26950;50.960;7.138;2022-07-05T12:25:30;101125.03;;;28.80;28.93
41218;BME280;26950;50.960;7.138;2022-07-05T12:27:58;101100.25;;;28.91;28.28
41218;BME280;26950;50.960;7.138;2022-07-05T12:30:27;101110.41;;;28.86;28.19
41218;BME280;26950;50.960;7.138;2022-07-05T12:32:55;101110.69;;;28.78;28.29
41218;BME280;26950;50.960;7.138;2022-07-05T12:35:28;101110.09;;;28.23;27.71
41218;BME280;26950;50.960;7.138;2022-07-05T12:37:55;101110.72;;;28.31;27.69
41218;BME280;26950;50.960;7.138;2022-07-05T12:40:23;101106.84;;;28.38;27.95
41218;BME280;26950;50.960;7.138;2022-07-05T12:43:01;101102.97;;;28.45;27.91
41218;BME280;26950;50.960;7.138;2022-07-05T12:45:28;101102.28;;;28.15;27.43
41218;BME280;26950;50.960;7.138;2022-07-05T12:47:56;101102.31;;;28.39;27.05
41218;BME280;26950;50.960;7.138;2022-07-05T12:50:24;101100.75;;;28.57;27.72
41218;BME280;26950;50.960;7.138;2022-07-05T12:53:03;101107.97;;;28.56;27.51
41218;BME280;26950;50.960;7.138;2022-07-05T12:55:48;101105.13;;;28.59;27.14
41218;BME280;26950;50.960;7.138;2022-07-05T12:58:32;101110.13;;;28.46;28.43